Date,TemperatureHighF,TemperatureAvgF,TemperatureLowF,DewpointHighF,DewpointAvgF,DewpointLowF,HumidityHigh,HumidityAvg,HumidityLow,PressureMaxIn,PressureMinIn,WindSpeedMaxMPH,WindSpeedAvgMPH,GustSpeedMaxMPH,PrecipitationSumIn
2013-3-1,33.0,29.4,27.0,31.0,25.3,21.0,91,85,78,29.91,29.70,7,3,13,0.38
2013-3-2,27.0,23.7,22.0,23.0,19.6,17.0,87,84,79,29.93,29.85,6,3,13,0.00
2013-3-3,24.0,22.1,21.0,20.0,17.4,15.0,87,82,73,29.88,29.83,7,3,13,0.00
2013-3-4,29.0,25.1,21.0,22.0,18.6,15.0,83,76,68,30.03,29.87,9,5,22,0.00
2013-3-5,32.0,26.8,22.0,24.0,21.0,18.0,85,79,71,30.09,29.97,8,2,14,0.04
2013-3-6,41.0,31.4,21.0,32.0,26.2,17.0,87,81,66,30.13,29.96,4,0,11,0.06
2013-3-7,36.0,33.6,31.0,32.0,28.8,25.0,89,82,72,30.27,30.12,4,0,6,0.01
2013-3-8,39.0,34.0,30.0,26.0,24.4,23.0,79,68,55,30.38,30.24,6,2,12,0.01
2013-3-9,47.0,35.6,27.0,35.0,27.5,23.0,87,73,55,30.41,30.24,4,1,10,0.00
2013-3-10,61.0,48.6,33.0,36.0,30.5,25.0,73,51,35,30.24,29.98,9,3,14,0.00
2013-3-11,55.0,51.7,49.0,44.0,34.3,30.0,70,51,47,30.00,29.69,13,5,28,0.00
2013-3-12,55.0,41.0,34.0,47.0,34.7,28.0,89,78,70,29.91,29.68,13,5,25,0.25
2013-3-13,38.0,32.4,24.0,28.0,23.5,17.0,83,70,55,29.92,29.81,16,7,31,0.00
2013-3-14,31.0,27.9,21.0,19.0,12.9,9.0,82,54,39,30.03,29.92,15,9,28,0.00
2013-3-15,38.0,36.2,35.0,30.0,28.9,23.0,80,75,62,29.78,29.70,13,7,29,0.01
2013-3-17,28.0,26.7,24.0,22.0,16.6,12.0,84,65,54,30.29,30.13,7,3,14,0.00
2013-3-18,34.0,28.6,22.0,27.0,20.5,13.0,89,73,52,30.25,29.75,11,6,30,0.02
2013-3-19,35.0,31.3,25.0,33.0,26.5,19.0,91,83,64,29.82,29.67,14,5,38,0.22
2013-3-20,33.0,27.2,24.0,22.0,19.2,16.0,81,72,54,29.82,29.78,13,6,29,0.03
2013-3-21,30.0,25.2,20.0,24.0,17.5,13.0,83,73,52,29.81,29.70,14,5,20,0.01
2013-3-22,31.0,27.8,25.0,26.0,23.1,21.0,88,82,75,29.90,29.72,12,5,24,0.04
2013-3-23,36.0,32.1,28.0,26.0,24.1,22.0,84,72,60,29.99,29.88,12,6,22,0.05
2013-3-24,38.0,32.0,25.0,27.0,23.7,21.0,84,72,58,29.99,29.74,4,1,9,0.01
2013-3-25,40.0,34.4,30.0,30.0,26.4,23.0,81,72,62,29.74,29.60,4,1,8,0.00
2013-3-26,43.0,36.7,30.0,33.0,28.4,25.0,84,73,57,29.92,29.71,8,2,13,0.00
2013-3-27,45.0,36.6,32.0,34.0,29.6,26.0,89,76,61,30.04,29.90,12,5,20,0.04
2013-3-28,43.0,37.5,33.0,35.0,31.2,29.0,90,79,57,30.19,30.03,7,3,14,0.04
2013-3-29,49.0,40.9,36.0,36.0,31.7,28.0,83,71,49,30.19,30.11,7,3,13,0.01
2013-3-30,50.0,40.3,31.0,32.0,27.7,24.0,83,62,41,30.20,30.06,6,2,14,0.00
2013-3-31,56.0,43.7,36.0,42.0,31.8,-99.9,90,67,42,30.06,29.62,7,2,23,0.15